Time;durP1;ratioP1;P1;durP2;ratioP2;P2;SDS_P1;SDS_P2;PMS_P1;PMS_P2;Temp;Humidity;BMP_temperature;BMP_pressure;BME280_temperature;BME280_humidity;BME280_pressure;Samples;Min_cycle;Max_cycle;Signal;HPM_P1;HPM_P2
2023/04/03 00:02:02;;;;;;;0.88;0.50;;;;;;;5.27;71.14;103163.47;5037784;27;97790;-29
2023/04/03 00:04:27;;;;;;;0.40;0.28;;;;;;;5.20;71.22;103159.00;5038202;27;96415;-29
2023/04/03 00:06:53;;;;;;;0.60;0.38;;;;;;;5.18;71.79;103166.16;5038186;28;96858;-30
2023/04/03 00:09:18;;;;;;;0.90;0.30;;;;;;;5.17;71.72;103167.06;5037564;27;100632;-29
2023/04/03 00:11:43;;;;;;;0.15;0.10;;;;;;;5.11;71.65;103165.28;5037730;27;97307;-29
2023/04/03 00:14:09;;;;;;;0.10;0.10;;;;;;;5.10;71.51;103175.13;5037623;28;97122;-29
2023/04/03 00:16:34;;;;;;;0.15;0.15;;;;;;;5.11;71.43;103173.34;5037943;27;96790;-29
2023/04/03 00:18:59;;;;;;;1.08;0.50;;;;;;;5.03;71.39;103176.03;5037578;27;97897;-29
2023/04/03 00:21:25;;;;;;;0.65;0.50;;;;;;;5.03;71.55;103180.50;5037560;27;97435;-29
2023/04/03 00:23:51;;;;;;;0.22;0.20;;;;;;;5.03;71.64;103180.50;5037384;27;96581;-28
2023/04/03 00:26:16;;;;;;;0.65;0.38;;;;;;;4.97;71.70;103176.03;5037446;27;96739;-28
2023/04/03 00:28:41;;;;;;;0.90;0.63;;;;;;;4.96;71.47;103186.75;5036373;27;99707;-28
2023/04/03 00:31:07;;;;;;;0.55;0.20;;;;;;;4.92;71.35;103180.50;5037372;27;97327;-28
2023/04/03 00:33:32;;;;;;;1.15;0.47;;;;;;;4.88;71.55;103184.97;5037767;27;96505;-29
2023/04/03 00:35:57;;;;;;;0.30;0.30;;;;;;;4.85;71.08;103184.09;5037705;27;96773;-29
2023/04/03 00:38:23;;;;;;;2.13;0.05;;;;;;;4.83;71.72;103185.88;5037107;27;97477;-28
2023/04/03 00:40:49;;;;;;;1.38;0.30;;;;;;;4.79;71.38;103176.94;5037387;27;99712;-30
2023/04/03 00:43:22;;;;;;;2.58;0.43;;;;;;;4.75;71.24;103176.94;5036045;27;96610;-30
2023/04/03 00:45:53;;;;;;;0.15;0.08;;;;;;;4.72;71.06;103175.16;5037268;27;96689;-29
2023/04/03 00:48:34;;;;;;;0.70;0.47;;;;;;;4.67;71.65;103184.97;5036609;27;99049;-29
2023/04/03 00:51:01;;;;;;;0.30;0.30;;;;;;;4.67;71.14;103177.84;5034828;28;101058;-29
2023/04/03 00:53:33;;;;;;;1.33;0.47;;;;;;;4.65;71.60;103181.41;5035747;28;96655;-28
2023/04/03 00:56:00;;;;;;;0.55;0.38;;;;;;;4.58;71.50;103177.81;5035926;28;96693;-29
2023/04/03 00:58:35;;;;;;;0.40;0.30;;;;;;;4.56;71.21;103186.78;5035422;28;102189;-29
2023/04/03 01:01:05;;;;;;;0.57;0.30;;;;;;;4.55;71.19;103184.97;5036811;27;99155;-29
2023/04/03 01:03:31;;;;;;;0.30;0.20;;;;;;;4.49;71.02;103184.97;5035723;28;96571;-28
2023/04/03 01:05:57;;;;;;;0.13;0.10;;;;;;;4.51;71.30;103188.56;5035975;28;96859;-28
2023/04/03 01:08:22;;;;;;;0.13;0.10;;;;;;;4.50;71.33;103189.44;5036579;28;97208;-28
2023/04/03 01:10:48;;;;;;;0.03;0.03;;;;;;;4.47;71.22;103187.66;5036728;28;96493;-29
2023/04/03 01:13:21;;;;;;;0.43;0.25;;;;;;;4.45;71.52;103194.78;5036633;28;96458;-30
2023/04/03 01:15:48;;;;;;;0.38;0.38;;;;;;;4.45;71.28;103194.78;5035535;28;96823;-29
2023/04/03 01:18:13;;;;;;;1.45;0.50;;;;;;;4.38;71.65;103190.31;5036604;27;98058;-28
2023/04/03 01:21:07;;;;;;;0.65;0.22;;;;;;;4.38;71.60;103198.34;5036506;27;97829;-29
2023/04/03 01:23:36;;;;;;;0.20;0.20;;;;;;;4.38;71.92;103201.03;5036956;28;96675;-29
2023/04/03 01:26:02;;;;;;;1.42;0.57;;;;;;;4.35;71.69;103207.28;5036691;27;96823;-28
2023/04/03 01:28:31;;;;;;;1.17;0.20;;;;;;;4.33;71.88;103200.13;5034205;28;100839;-30
2023/04/03 01:31:16;;;;;;;0.15;0.15;;;;;;;4.31;71.37;103196.56;5035133;28;101490;-28
2023/04/03 01:33:42;;;;;;;0.22;0.20;;;;;;;4.25;71.33;103201.00;5036815;27;96594;-30
2023/04/03 01:36:13;;;;;;;0.17;0.17;;;;;;;4.19;71.38;103203.66;5035328;27;96818;-29
2023/04/03 01:38:38;;;;;;;0.13;0.08;;;;;;;4.18;71.76;103199.19;5034184;28;100766;-29
2023/04/03 01:41:04;;;;;;;1.45;0.20;;;;;;;4.22;72.17;103206.38;5034895;27;98898;-29
2023/04/03 01:43:29;;;;;;;0.00;0.00;;;;;;;4.25;71.95;103210.84;5036130;27;96614;-28
2023/04/03 01:45:54;;;;;;;0.25;0.20;;;;;;;4.24;72.12;103201.00;5036760;27;96785;-28
2023/04/03 01:48:20;;;;;;;0.22;0.22;;;;;;;4.26;72.15;103207.25;5036233;27;98156;-29
2023/04/03 01:50:46;;;;;;;3.63;0.52;;;;;;;4.20;71.93;103200.09;5036240;27;97352;-29
2023/04/03 01:53:11;;;;;;;0.35;0.20;;;;;;;4.24;71.46;103198.31;5036468;27;96492;-28
2023/04/03 01:55:37;;;;;;;0.45;0.30;;;;;;;4.26;72.03;103205.47;5036486;28;96788;-28
2023/04/03 01:58:02;;;;;;;0.25;0.25;;;;;;;4.22;71.91;103210.84;5034417;27;99060;-29
2023/04/03 02:00:27;;;;;;;0.13;0.13;;;;;;;4.20;72.27;103205.47;5036234;27;97244;-28
2023/04/03 02:02:53;;;;;;;0.10;0.10;;;;;;;4.18;72.34;103204.56;5035711;27;96398;-28
2023/04/03 02:05:19;;;;;;;0.22;0.20;;;;;;;4.19;72.50;103225.13;5036307;27;96764;-28
2023/04/03 02:07:44;;;;;;;0.40;0.35;;;;;;;4.15;72.37;103209.94;5034286;28;101026;-29
2023/04/03 02:10:10;;;;;;;0.55;0.20;;;;;;;4.12;72.24;103211.69;5035652;27;99754;-30
2023/04/03 02:12:35;;;;;;;0.28;0.22;;;;;;;4.12;72.54;103212.56;5035838;27;96566;-31
2023/04/03 02:15:00;;;;;;;0.63;0.28;;;;;;;4.12;72.69;103219.75;5035905;27;96740;-29
2023/04/03 02:17:26;;;;;;;0.32;0.30;;;;;;;4.07;72.12;103219.72;5035650;27;98366;-28
2023/04/03 02:19:52;;;;;;;0.03;0.03;;;;;;;4.05;72.35;103224.19;5036112;27;97882;-28
2023/04/03 02:22:17;;;;;;;0.73;0.45;;;;;;;4.04;72.58;103222.41;5036079;28;96666;-29
2023/04/03 02:24:42;;;;;;;0.40;0.28;;;;;;;4.02;72.48;103222.38;5036138;27;96681;-28
2023/04/03 02:27:08;;;;;;;0.68;0.55;;;;;;;4.01;72.80;103227.75;5034848;27;97919;-29
2023/04/03 02:29:33;;;;;;;0.85;0.28;;;;;;;3.97;73.11;103216.09;5034977;27;97272;-30
2023/04/03 02:31:58;;;;;;;0.20;0.20;;;;;;;3.97;72.71;103232.19;5035890;28;96704;-29
2023/04/03 02:34:24;;;;;;;0.17;0.17;;;;;;;3.92;72.17;103227.72;5035529;27;96774;-28
2023/04/03 02:36:49;;;;;;;0.15;0.15;;;;;;;3.87;72.54;103229.47;5035088;27;101497;-29
2023/04/03 02:39:15;;;;;;;0.68;0.30;;;;;;;3.88;72.80;103231.25;5035294;27;97745;-29
2023/04/03 02:41:40;;;;;;;0.93;0.32;;;;;;;3.83;72.91;103233.91;5035538;28;96437;-29
2023/04/03 02:44:08;;;;;;;0.45;0.40;;;;;;;3.84;72.91;103227.69;5035763;27;96770;-30
2023/04/03 02:46:34;;;;;;;0.13;0.13;;;;;;;3.82;72.43;103226.78;5033831;27;101456;-29
2023/04/03 02:48:59;;;;;;;0.10;0.10;;;;;;;3.72;73.07;103219.56;5034987;27;99236;-28
2023/04/03 02:51:24;;;;;;;0.20;0.10;;;;;;;3.71;73.10;103218.66;5034999;28;96594;-28
2023/04/03 02:53:50;;;;;;;0.20;0.17;;;;;;;3.74;73.24;103229.44;5035504;27;96740;-28
2023/04/03 02:56:17;;;;;;;1.95;0.47;;;;;;;3.73;73.04;103229.41;5035065;28;97033;-29
2023/04/03 02:58:43;;;;;;;0.52;0.35;;;;;;;3.72;73.14;103233.88;5033445;28;100871;-29
2023/04/03 03:01:09;;;;;;;0.35;0.30;;;;;;;3.67;73.16;103227.59;5033851;28;96665;-28
2023/04/03 03:03:34;;;;;;;0.32;0.28;;;;;;;3.65;73.04;103226.69;5035388;27;96781;-30
2023/04/03 03:06:03;;;;;;;0.10;0.10;;;;;;;3.63;73.21;103228.47;5034985;27;97892;-28
2023/04/03 03:08:29;;;;;;;0.10;0.10;;;;;;;3.66;73.51;103230.25;5033817;27;101395;-28
2023/04/03 03:10:54;;;;;;;0.30;0.10;;;;;;;3.65;73.23;103229.38;5035254;27;96535;-29
2023/04/03 03:13:19;;;;;;;0.10;0.00;;;;;;;3.62;73.75;103229.31;5034534;28;96809;-30
2023/04/03 03:15:45;;;;;;;0.20;0.20;;;;;;;3.64;73.49;103237.38;5032974;28;99258;-29
2023/04/03 03:18:10;;;;;;;0.03;0.03;;;;;;;3.62;73.80;103232.00;5034571;27;99694;-28
2023/04/03 03:20:35;;;;;;;0.63;0.63;;;;;;;3.56;73.57;103238.25;5034969;28;96580;-28
2023/04/03 03:23:01;;;;;;;0.45;0.45;;;;;;;3.52;73.90;103222.13;5035010;28;96873;-29
2023/04/03 03:25:26;;;;;;;0.82;0.70;;;;;;;3.55;73.87;103240.91;5034726;28;97485;-29
2023/04/03 03:27:51;;;;;;;0.43;0.35;;;;;;;3.55;74.40;103235.53;5033778;27;97869;-30
2023/04/03 03:30:17;;;;;;;0.22;0.22;;;;;;;3.51;74.16;103237.31;5033483;28;96551;-29
2023/04/03 03:32:42;;;;;;;0.28;0.28;;;;;;;3.48;74.43;103237.31;5035337;28;96840;-28
2023/04/03 03:35:08;;;;;;;1.42;0.55;;;;;;;3.50;74.52;103243.53;5034392;27;99939;-29
2023/04/03 03:37:33;;;;;;;0.28;0.28;;;;;;;3.50;74.12;103243.53;5034128;27;98066;-28
2023/04/03 03:39:58;;;;;;;2.08;0.55;;;;;;;3.46;74.53;103251.59;5034247;27;96594;-29
2023/04/03 03:42:24;;;;;;;0.40;0.40;;;;;;;3.43;74.53;103241.72;5034485;28;96837;-29
2023/04/03 03:44:49;;;;;;;0.45;0.28;;;;;;;3.44;74.39;103246.19;5034276;27;98591;-29
2023/04/03 03:47:14;;;;;;;0.90;0.52;;;;;;;3.42;74.48;103257.78;5034318;27;98864;-29
2023/04/03 03:49:40;;;;;;;0.15;0.15;;;;;;;3.41;74.53;103256.91;5034560;27;96698;-28
2023/04/03 03:52:06;;;;;;;0.60;0.35;;;;;;;3.42;74.94;103264.03;5034387;27;96839;-29
2023/04/03 03:54:31;;;;;;;0.70;0.60;;;;;;;3.43;74.80;103257.78;5034456;28;98024;-28
2023/04/03 03:56:56;;;;;;;0.70;0.47;;;;;;;3.34;74.72;103255.97;5034197;27;99140;-28
2023/04/03 03:59:22;;;;;;;0.15;0.13;;;;;;;3.35;75.12;103249.69;5034630;27;96514;-30
2023/04/03 04:01:47;;;;;;;1.50;0.30;;;;;;;3.34;75.24;103250.59;5034591;27;96722;-28
2023/04/03 04:04:12;;;;;;;1.00;0.60;;;;;;;3.36;75.13;103254.19;5033443;27;99469;-29
2023/04/03 04:06:38;;;;;;;0.60;0.38;;;;;;;3.31;74.85;103255.94;5033919;27;99345;-29
2023/04/03 04:09:03;;;;;;;2.30;0.50;;;;;;;3.24;75.02;103254.06;5034542;28;96612;-28
2023/04/03 04:11:28;;;;;;;0.28;0.28;;;;;;;3.27;75.71;103255.91;5033954;27;96918;-29
2023/04/03 04:13:54;;;;;;;0.80;0.20;;;;;;;3.27;75.54;103261.25;5033810;27;99686;-29
2023/04/03 04:16:19;;;;;;;0.93;0.30;;;;;;;3.24;75.53;103251.41;5033979;28;97793;-29
2023/04/03 04:18:44;;;;;;;0.35;0.35;;;;;;;3.24;75.38;103255.84;5031499;28;100247;-28
2023/04/03 04:21:10;;;;;;;0.10;0.10;;;;;;;3.13;74.92;103259.34;5031991;27;96752;-29
2023/04/03 04:23:35;;;;;;;1.23;0.63;;;;;;;3.09;75.55;103252.19;5031354;27;99339;-29
2023/04/03 04:26:00;;;;;;;0.85;0.50;;;;;;;3.12;75.82;103264.69;5033505;27;109551;-29
2023/04/03 04:28:26;;;;;;;0.22;0.22;;;;;;;3.11;76.07;103258.44;5033560;27;96833;-29
2023/04/03 04:30:51;;;;;;;0.75;0.25;;;;;;;3.10;76.18;103256.66;5034833;27;96834;-29
2023/04/03 04:33:16;;;;;;;1.38;0.85;;;;;;;3.13;75.74;103270.06;5034850;27;98017;-29
2023/04/03 04:35:43;;;;;;;0.10;0.10;;;;;;;3.10;75.66;103267.38;5034748;27;98781;-29
2023/04/03 04:38:08;;;;;;;1.10;0.50;;;;;;;3.08;76.15;103265.56;5033315;27;96553;-28
2023/04/03 04:40:34;;;;;;;0.73;0.47;;;;;;;3.06;75.84;103268.22;5034473;27;96862;-29
2023/04/03 04:42:59;;;;;;;0.98;0.68;;;;;;;3.04;75.84;103266.41;5034806;27;97885;-29
2023/04/03 04:45:25;;;;;;;1.90;0.82;;;;;;;3.02;76.51;103269.06;5034724;27;99143;-29
2023/04/03 04:47:52;;;;;;;13.25;5.40;;;;;;;3.06;76.54;103272.69;5034841;27;96489;-29
2023/04/03 04:50:17;;;;;;;7.65;5.43;;;;;;;3.05;76.21;103277.16;5034755;27;96696;-29
2023/04/03 04:52:42;;;;;;;10.82;2.70;;;;;;;3.00;76.13;103275.28;5034063;28;97333;-29
2023/04/03 04:55:08;;;;;;;2.28;1.60;;;;;;;2.97;76.22;103285.09;5034361;27;97737;-29
2023/04/03 04:57:34;;;;;;;1.15;0.85;;;;;;;2.94;76.51;103279.72;5034652;27;96431;-29
2023/04/03 04:59:59;;;;;;;0.68;0.57;;;;;;;2.95;76.48;103278.81;5034415;27;96846;-28
2023/04/03 05:02:28;;;;;;;0.32;0.32;;;;;;;2.92;76.91;103284.16;5034216;27;98923;-29
2023/04/03 05:04:53;;;;;;;4.03;1.33;;;;;;;2.96;76.67;103295.81;5034251;27;99152;-29
2023/04/03 05:07:19;;;;;;;4.03;1.55;;;;;;;2.93;76.63;103296.69;5034646;27;97943;-28
2023/04/03 05:09:44;;;;;;;0.80;0.73;;;;;;;2.93;77.05;103299.34;5034269;27;96839;-29
2023/04/03 05:12:09;;;;;;;1.25;0.98;;;;;;;2.95;76.94;103299.34;5034068;27;97375;-28
2023/04/03 05:14:35;;;;;;;0.85;0.85;;;;;;;2.94;76.80;103301.13;5034077;28;99370;-28
2023/04/03 05:17:00;;;;;;;3.20;1.75;;;;;;;2.92;76.99;103293.97;5033776;27;96604;-29
2023/04/03 05:19:25;;;;;;;2.40;1.95;;;;;;;2.89;77.10;103294.84;5032790;28;96774;-28
2023/04/03 05:21:51;;;;;;;3.58;2.78;;;;;;;2.91;77.67;103295.75;5034428;27;97530;-29
2023/04/03 05:24:16;;;;;;;2.90;0.82;;;;;;;2.91;77.66;103297.53;5033574;27;99610;-30
2023/04/03 05:26:43;;;;;;;1.00;0.50;;;;;;;2.88;77.56;103301.06;5034064;28;96587;-28
2023/04/03 05:29:09;;;;;;;0.65;0.65;;;;;;;2.87;77.26;103293.91;5032339;27;96908;-29
2023/04/03 05:31:34;;;;;;;0.73;0.65;;;;;;;2.88;77.48;103308.19;5034070;27;98076;-29
2023/04/03 05:33:59;;;;;;;0.10;0.10;;;;;;;2.86;77.61;103308.19;5034043;28;99426;-29
2023/04/03 05:36:25;;;;;;;0.57;0.35;;;;;;;2.87;77.69;103306.41;5033346;27;96555;-30
2023/04/03 05:38:51;;;;;;;0.13;0.13;;;;;;;2.87;77.89;103312.66;5033677;27;96867;-28
2023/04/03 05:41:16;;;;;;;0.20;0.20;;;;;;;2.83;77.36;103309.94;5033378;27;98432;-30
2023/04/03 05:43:42;;;;;;;0.20;0.20;;;;;;;2.82;77.47;103309.03;5033741;27;97874;-29
2023/04/03 05:46:16;;;;;;;0.30;0.30;;;;;;;2.81;77.75;103309.00;5034049;27;96442;-28
2023/04/03 05:48:43;;;;;;;0.20;0.20;;;;;;;2.80;77.95;103310.81;5032475;28;96689;-29
2023/04/03 05:51:16;;;;;;;1.05;0.55;;;;;;;2.81;77.87;103312.56;5032244;28;100677;-28
2023/04/03 05:53:43;;;;;;;1.02;0.75;;;;;;;2.85;77.47;103310.84;5031984;28;100931;-29
2023/04/03 05:56:09;;;;;;;0.90;0.63;;;;;;;2.84;77.57;103309.97;5032174;28;96693;-29
2023/04/03 05:58:34;;;;;;;1.98;1.25;;;;;;;2.83;77.83;103308.16;5033992;27;96808;-29
2023/04/03 06:01:00;;;;;;;0.60;0.60;;;;;;;2.84;77.90;103318.00;5033625;27;97412;-28
2023/04/03 06:03:25;;;;;;;1.13;0.82;;;;;;;2.81;78.24;103309.00;5033270;27;99485;-29
2023/04/03 06:05:51;;;;;;;0.68;0.57;;;;;;;2.85;77.90;103324.22;5032757;27;96589;-28
2023/04/03 06:08:16;;;;;;;1.17;0.98;;;;;;;2.79;77.51;103319.72;5033246;27;96969;-28
2023/04/03 06:10:42;;;;;;;0.93;0.50;;;;;;;2.79;77.64;103316.13;5032226;28;97976;-29
2023/04/03 06:13:07;;;;;;;2.20;0.35;;;;;;;2.84;78.53;103326.03;5032943;28;110493;-31
2023/04/03 06:15:33;;;;;;;7.75;4.15;;;;;;;2.89;77.45;103328.75;5033395;27;96746;-28
2023/04/03 06:17:59;;;;;;;9.60;6.00;;;;;;;2.91;77.56;103335.91;5033324;28;96758;-29
2023/04/03 06:20:24;;;;;;;4.57;2.60;;;;;;;2.91;77.73;103330.56;5032944;28;98984;-29
2023/04/03 06:22:50;;;;;;;6.00;3.63;;;;;;;2.92;77.13;103335.00;5033306;27;97731;-30
2023/04/03 06:25:18;;;;;;;1.80;1.30;;;;;;;2.92;77.27;103336.81;5031899;28;97179;-29
2023/04/03 06:27:44;;;;;;;0.88;0.88;;;;;;;2.98;77.37;103340.44;5032412;27;96781;-29
2023/04/03 06:30:10;;;;;;;1.75;0.38;;;;;;;3.07;77.20;103333.38;5031096;27;99069;-28
2023/04/03 06:32:36;;;;;;;0.60;0.60;;;;;;;3.18;76.83;103342.41;5032746;27;99238;-31
2023/04/03 06:35:01;;;;;;;1.60;0.82;;;;;;;3.22;76.72;103338.88;5032883;27;96605;-28
2023/04/03 06:37:28;;;;;;;0.50;0.50;;;;;;;3.36;76.63;103334.56;5032627;27;96846;-30
2023/04/03 06:39:54;;;;;;;0.47;0.47;;;;;;;3.47;76.32;103339.97;5032736;27;99854;-30
2023/04/03 06:42:20;;;;;;;0.52;0.43;;;;;;;3.65;75.83;103341.00;5031336;28;101020;-31
2023/04/03 06:44:45;;;;;;;0.30;0.20;;;;;;;3.81;75.08;103333.13;5032846;27;97174;-28
2023/04/03 06:47:15;;;;;;;0.28;0.25;;;;;;;3.98;75.20;103335.91;5032785;27;96842;-29
2023/04/03 06:49:41;;;;;;;0.35;0.35;;;;;;;4.10;74.27;103331.47;5031282;28;100815;-29
2023/04/03 06:52:07;;;;;;;0.30;0.30;;;;;;;4.31;74.22;103328.00;5032131;27;99657;-28
2023/04/03 06:54:32;;;;;;;0.73;0.50;;;;;;;4.55;73.65;103330.78;5032067;27;96412;-29
2023/04/03 06:56:58;;;;;;;0.65;0.30;;;;;;;4.75;73.31;103340.72;5032547;27;96876;-29
2023/04/03 06:59:23;;;;;;;4.53;0.30;;;;;;;4.98;72.71;103340.75;5032552;27;98392;-29
2023/04/03 07:01:49;;;;;;;14.30;5.82;;;;;;;5.11;71.52;103346.16;5032227;27;99170;-28
2023/04/03 07:04:15;;;;;;;16.20;8.35;;;;;;;5.35;71.29;103355.13;5032318;27;96440;-30
2023/04/03 07:06:42;;;;;;;6.40;3.38;;;;;;;5.45;70.82;103343.50;5031110;28;96865;-29
2023/04/03 07:09:08;;;;;;;9.00;4.68;;;;;;;5.56;69.97;103353.38;5031009;28;101369;-29
2023/04/03 07:11:34;;;;;;;16.05;4.93;;;;;;;5.74;70.17;103347.94;5031338;28;101151;-29
2023/04/03 07:13:59;;;;;;;6.20;1.77;;;;;;;6.02;70.10;103359.59;5031061;28;96568;-28
2023/04/03 07:16:25;;;;;;;1.10;0.73;;;;;;;6.14;68.91;103347.91;5032442;28;96772;-29
2023/04/03 07:18:50;;;;;;;1.25;0.47;;;;;;;6.37;68.69;103353.25;5031899;27;97853;-28
2023/04/03 07:21:16;;;;;;;0.73;0.60;;;;;;;6.54;66.56;103363.94;5030722;28;98774;-30
2023/04/03 07:23:41;;;;;;;1.60;1.00;;;;;;;6.53;66.44;103354.97;5032408;27;96551;-29
2023/04/03 07:26:07;;;;;;;0.52;0.40;;;;;;;6.56;65.46;103371.13;5032417;27;96799;-28
2023/04/03 07:28:33;;;;;;;0.88;0.60;;;;;;;6.65;66.45;103370.19;5031334;28;99350;-29
2023/04/03 07:31:08;;;;;;;1.10;0.38;;;;;;;6.72;66.04;103371.03;5032230;27;97367;-29
2023/04/03 07:33:34;;;;;;;2.08;1.05;;;;;;;6.81;65.72;103371.88;5031812;27;96493;-29
2023/04/03 07:36:01;;;;;;;0.75;0.65;;;;;;;6.95;65.06;103373.63;5031002;28;96903;-29
2023/04/03 07:38:27;;;;;;;1.63;0.80;;;;;;;7.18;65.12;103363.59;5031733;27;99085;-29
2023/04/03 07:40:52;;;;;;;2.90;0.52;;;;;;;7.35;63.66;103366.16;5030444;28;101214;-29
2023/04/03 07:43:19;;;;;;;1.13;0.30;;;;;;;7.43;63.25;103358.00;5031528;27;96483;-28
2023/04/03 07:45:46;;;;;;;0.30;0.20;;;;;;;7.61;63.86;103370.47;5031970;27;96910;-28
2023/04/03 07:48:12;;;;;;;2.17;0.35;;;;;;;7.62;61.28;103366.84;5030308;27;100876;-28
2023/04/03 07:50:40;;;;;;;1.45;0.90;;;;;;;7.74;62.29;103371.25;5030522;28;100839;-29
2023/04/03 07:53:05;;;;;;;0.82;0.57;;;;;;;7.68;62.05;103368.63;5030680;28;96775;-29
2023/04/03 07:55:32;;;;;;;1.30;0.60;;;;;;;7.77;61.04;103376.59;5032261;27;96796;-28
2023/04/03 07:57:57;;;;;;;1.25;0.68;;;;;;;7.63;61.60;103382.13;5030404;28;101771;-31
2023/04/03 08:00:23;;;;;;;1.02;0.68;;;;;;;7.93;63.30;103380.06;5035542;27;97792;-30
2023/04/03 08:02:51;;;;;;;1.20;0.90;;;;;;;7.93;61.18;103378.25;5033982;27;96773;-30
2023/04/03 08:05:18;;;;;;;0.60;0.52;;;;;;;8.07;60.56;103375.41;5033916;28;96833;-29
2023/04/03 08:07:44;;;;;;;5.97;0.90;;;;;;;8.27;59.72;103386.00;5033630;28;98027;-29
2023/04/03 08:10:10;;;;;;;2.70;1.55;;;;;;;8.32;60.41;103378.75;5033690;28;100813;-29
2023/04/03 08:12:36;;;;;;;1.35;0.88;;;;;;;8.42;59.04;103385.88;5035441;28;96493;-31
2023/04/03 08:15:03;;;;;;;0.60;0.40;;;;;;;8.67;60.60;103396.38;5035304;27;96834;-29
2023/04/03 08:17:28;;;;;;;0.60;0.50;;;;;;;8.64;59.88;103388.31;5034785;27;99694;-29
2023/04/03 08:19:53;;;;;;;0.80;0.40;;;;;;;8.71;58.47;103390.03;5034883;27;99206;-31
2023/04/03 08:22:19;;;;;;;0.43;0.38;;;;;;;8.59;57.19;103385.66;5034763;28;104436;-29
2023/04/03 08:24:44;;;;;;;2.35;0.80;;;;;;;8.79;58.21;103389.91;5035414;27;96863;-28
2023/04/03 08:27:09;;;;;;;0.40;0.40;;;;;;;8.66;58.27;103387.38;5033209;28;101497;-28
2023/04/03 08:29:37;;;;;;;4.07;0.68;;;;;;;8.77;57.58;103395.34;5034790;27;97887;-28
2023/04/03 08:32:03;;;;;;;0.40;0.30;;;;;;;8.91;58.65;103397.84;5034307;27;96689;-29
2023/04/03 08:34:29;;;;;;;1.67;0.80;;;;;;;9.03;57.62;103397.69;5035362;27;96797;-28
2023/04/03 08:36:55;;;;;;;1.67;0.55;;;;;;;9.20;58.25;103396.56;5034605;27;98098;-28
2023/04/03 08:39:21;;;;;;;0.95;0.65;;;;;;;9.13;56.25;103398.47;5034668;27;98506;-28
2023/04/03 08:41:47;;;;;;;0.40;0.35;;;;;;;9.12;56.10;103394.84;5034732;27;96533;-28
2023/04/03 08:44:50;;;;;;;0.73;0.63;;;;;;;9.08;55.86;103403.03;5033351;27;96916;-28
2023/04/03 08:47:26;;;;;;;0.73;0.32;;;;;;;9.03;53.50;103394.97;5034673;28;98055;-28
2023/04/03 08:49:57;;;;;;;1.27;0.30;;;;;;;9.25;55.07;103395.59;5033580;28;101039;-28
2023/04/03 08:52:38;;;;;;;1.08;0.55;;;;;;;9.56;56.50;103395.09;5033526;28;96590;-28
2023/04/03 08:55:07;;;;;;;0.50;0.40;;;;;;;9.82;56.70;103396.47;5035201;27;96740;-28
2023/04/03 08:57:42;;;;;;;2.03;0.60;;;;;;;10.00;55.59;103394.31;5032442;28;101225;-29
2023/04/03 09:00:17;;;;;;;1.00;0.47;;;;;;;10.01;53.70;103406.06;5032866;27;101114;-28
2023/04/03 09:02:53;;;;;;;0.45;0.40;;;;;;;10.17;55.47;103393.13;5033012;28;97622;-28
2023/04/03 09:05:39;;;;;;;1.15;0.45;;;;;;;10.21;53.00;103386.72;5033015;28;96730;-29
2023/04/03 09:08:12;;;;;;;2.20;0.75;;;;;;;10.41;54.18;103389.06;5032975;28;100630;-29
2023/04/03 09:10:40;;;;;;;0.90;0.40;;;;;;;10.41;52.89;103384.53;5032281;27;100808;-30
2023/04/03 09:13:32;;;;;;;0.45;0.40;;;;;;;10.55;53.79;103392.41;5033035;28;96631;-29
2023/04/03 09:16:02;;;;;;;0.65;0.43;;;;;;;10.68;53.46;103392.13;5034939;27;96529;-29
2023/04/03 09:18:32;;;;;;;1.52;0.73;;;;;;;10.89;52.65;103388.06;5032556;28;100643;-28
2023/04/03 09:21:13;;;;;;;0.50;0.40;;;;;;;10.88;50.05;103395.31;5032782;28;100948;-29
2023/04/03 09:23:50;;;;;;;1.20;0.75;;;;;;;10.92;46.90;103393.44;5032479;28;97014;-29
2023/04/03 09:26:28;;;;;;;0.40;0.38;;;;;;;10.62;48.28;103385.91;5032564;28;96928;-29
2023/04/03 09:28:58;;;;;;;0.60;0.32;;;;;;;10.39;43.50;103386.41;5032388;28;100833;-30
2023/04/03 09:31:26;;;;;;;0.60;0.40;;;;;;;10.46;46.04;103376.31;5032579;28;101509;-29
2023/04/03 09:33:56;;;;;;;2.88;0.63;;;;;;;10.55;44.73;103389.69;5015970;28;96793;-29
2023/04/03 09:36:44;;;;;;;1.38;0.60;;;;;;;10.55;44.03;103381.56;5032403;28;96828;-29
2023/04/03 09:39:21;;;;;;;0.45;0.45;;;;;;;10.60;41.76;103381.47;5032105;27;101566;-30
2023/04/03 09:42:25;;;;;;;0.52;0.40;;;;;;;10.76;45.16;103387.47;5031560;28;101399;-29
2023/04/03 09:44:58;;;;;;;1.38;0.57;;;;;;;10.88;43.66;103376.34;5004012;28;96843;-29
2023/04/03 09:47:24;;;;;;;0.82;0.40;;;;;;;10.80;40.21;103378.34;5013672;28;96781;-30
2023/04/03 09:50:09;;;;;;;0.75;0.70;;;;;;;11.03;41.34;103365.13;5011811;28;100695;-30
2023/04/03 09:52:34;;;;;;;0.45;0.40;;;;;;;11.23;43.28;103369.22;5011929;28;100860;-29
2023/04/03 09:55:16;;;;;;;0.70;0.35;;;;;;;11.37;40.42;103369.78;5013611;28;96761;-28
2023/04/03 09:57:43;;;;;;;0.22;0.22;;;;;;;11.24;40.59;103368.28;5012194;28;96843;-29
2023/04/03 10:00:38;;;;;;;0.88;0.57;;;;;;;11.32;42.09;103354.53;5012003;28;100668;-28
2023/04/03 10:03:05;;;;;;;0.50;0.30;;;;;;;11.46;40.46;103355.06;5008140;28;97887;-29
2023/04/03 10:05:36;;;;;;;0.40;0.30;;;;;;;11.54;39.04;103349.47;5012082;28;96561;-29
2023/04/03 10:08:14;;;;;;;0.23;0.23;;;;;;;11.71;39.37;103347.22;5012421;28;96792;-28
2023/04/03 10:10:46;;;;;;;0.70;0.50;;;;;;;11.58;38.99;103349.34;5013358;28;98028;-28
2023/04/03 10:13:16;;;;;;;0.77;0.52;;;;;;;11.60;38.63;103344.75;5013116;28;99587;-29
2023/04/03 10:15:55;;;;;;;0.28;0.28;;;;;;;11.60;38.04;103352.91;5012702;28;96652;-29
2023/04/03 10:18:27;;;;;;;0.60;0.55;;;;;;;11.80;40.98;103337.94;5011535;28;96930;-29
2023/04/03 10:20:57;;;;;;;0.35;0.28;;;;;;;11.55;37.65;103334.97;5011603;28;99332;-29
2023/04/03 10:23:37;;;;;;;0.45;0.40;;;;;;;11.83;40.95;103338.75;5010333;28;101169;-29
2023/04/03 10:26:16;;;;;;;0.10;0.10;;;;;;;11.76;37.23;103330.81;5011818;28;96604;-29
2023/04/03 10:28:52;;;;;;;3.67;0.30;;;;;;;11.62;37.94;103329.34;5010927;28;96842;-29
2023/04/03 10:31:26;;;;;;;0.82;0.43;;;;;;;11.56;38.63;103332.22;5012997;28;97167;-28
2023/04/03 10:33:59;;;;;;;0.30;0.30;;;;;;;11.61;38.27;103323.97;5013349;28;98027;-28
2023/04/03 10:36:43;;;;;;;0.80;0.38;;;;;;;11.83;38.67;103324.28;5011617;28;96684;-29
2023/04/03 10:39:26;;;;;;;0.30;0.28;;;;;;;11.76;37.00;103328.97;5011338;28;96856;-29
2023/04/03 10:41:54;;;;;;;0.30;0.10;;;;;;;11.68;35.38;103321.03;5010887;28;100838;-29
2023/04/03 10:44:42;;;;;;;0.95;0.30;;;;;;;11.74;34.48;103324.53;5012875;28;97965;-29
2023/04/03 10:47:14;;;;;;;0.77;0.20;;;;;;;11.85;37.01;103317.88;5011396;28;96615;-28
2023/04/03 10:50:02;;;;;;;0.30;0.10;;;;;;;11.78;35.90;103318.09;5011470;28;96714;-29
2023/04/03 10:52:35;;;;;;;0.15;0.05;;;;;;;11.90;35.12;103301.47;5011161;28;100965;-29
2023/04/03 10:55:07;;;;;;;0.38;0.28;;;;;;;12.07;37.53;103312.75;5011111;28;100303;-29
2023/04/03 10:57:32;;;;;;;1.10;0.35;;;;;;;12.17;37.31;103315.22;5011023;28;96818;-29
2023/04/03 11:00:02;;;;;;;0.30;0.08;;;;;;;12.11;35.18;103317.19;5012939;28;96815;-29
2023/04/03 11:02:31;;;;;;;0.30;0.20;;;;;;;12.31;36.85;103319.31;5011083;28;99068;-28
2023/04/03 11:05:03;;;;;;;0.10;0.10;;;;;;;12.09;35.27;103299.16;5011037;28;101198;-28
2023/04/03 11:07:36;;;;;;;0.20;0.20;;;;;;;12.14;34.11;103308.03;5010748;28;97151;-29
2023/04/03 11:10:23;;;;;;;0.13;0.13;;;;;;;12.32;35.19;103312.03;5010524;28;96800;-29
2023/04/03 11:12:56;;;;;;;5.13;0.57;;;;;;;12.47;36.24;103302.56;5009889;28;101182;-31
2023/04/03 11:15:23;;;;;;;0.52;0.22;;;;;;;12.54;35.88;103307.75;5009188;28;99208;-29
2023/04/03 11:18:06;;;;;;;0.20;0.10;;;;;;;12.63;32.14;103303.88;5008981;28;96649;-29
2023/04/03 11:20:33;;;;;;;0.47;0.25;;;;;;;12.57;35.38;103305.91;5010431;28;97149;-29
2023/04/03 11:23:24;;;;;;;2.28;0.17;;;;;;;12.44;32.78;103297.19;5011206;28;99210;-29
2023/04/03 11:25:53;;;;;;;0.28;0.10;;;;;;;12.33;32.85;103295.69;5010992;28;101085;-30
2023/04/03 11:28:18;;;;;;;0.05;0.05;;;;;;;12.19;31.75;103303.38;5009845;28;97054;-29
2023/04/03 11:31:07;;;;;;;0.22;0.13;;;;;;;12.26;31.58;103307.69;5012369;28;96499;-29
2023/04/03 11:33:36;;;;;;;0.30;0.10;;;;;;;12.25;29.44;103289.63;5009655;28;99354;-34
2023/04/03 11:36:25;;;;;;;0.30;0.10;;;;;;;12.25;29.84;103286.91;5009263;28;98038;-35